Latest Weather Observations for Montague Island

IDN60801

Issued at 7:02 am EDT Tuesday 21 February 2017 (issued every 30 minutes, with the page automatically refreshed every 10 minutes)

About weather observations | Map of weather stations | Latest weather observations for NSW | Other Formats
Station Details ID: 069017 Name: MONTAGUE ISLAND LIGHTHOUSE Lat: -36.25 Lon: 150.23 Height: 52.0 m
Data from the previous 72 hours. | See also: Recent months at Montague Island
Date/Time
EDT
Temp
°C
App
Temp
°C
Dew
Point
°C
Rel
Hum
%
Delta-T
°C
Wind Press
QNH
hPa
Press
MSL
hPa
Rain since
9am
mm
Dir  Spd
km/h
Gust
km/h
Spd
kts
Gust
kts
21/07:00am 16.7 14.8 9.1 61 3.9 SW 9 13 5 7 1018.9 1018.7 0.0
21/06:30am 16.3 14.4 10.4 68 3.1 SW 11 15 6 8 1018.6 1018.4 0.0
21/06:00am 16.5 15.0 10.6 68 3.1 SW 9 13 5 7 1018.3 1018.1 0.0
21/05:30am 16.9 15.3 10.1 64 3.6 SSW 9 13 5 7 1017.8 1017.6 0.0
21/05:00am 16.8 15.3 10.6 67 3.3 SSW 9 13 5 7 1017.4 1017.2 0.0
21/04:30am 17.3 15.9 10.9 66 3.4 SSW 9 13 5 7 1017.3 1017.1 0.0
21/04:00am 17.2 16.1 12.1 72 2.8 SW 9 13 5 7 1017.3 1017.1 0.0
21/03:30am 17.3 15.9 9.0 58 4.3 SSW 6 11 3 6 1017.4 1017.2 0.0
21/03:00am 17.3 15.4 9.2 59 4.2 WSW 9 13 5 7 1017.2 1017.0 0.0
21/02:30am 17.8 15.2 6.3 47 5.7 W 9 13 5 7 1017.2 1017.0 0.0
21/02:00am 18.1 15.4 7.2 49 5.5 WNW 11 15 6 8 1017.2 1017.0 0.0
21/01:30am 18.6 15.5 7.1 47 5.8 WNW 13 17 7 9 1017.3 1017.1 0.0
21/01:00am 18.8 15.7 7.3 47 5.8 WNW 13 17 7 9 1017.4 1017.2 0.0
21/12:30am 18.6 16.7 9.1 54 5.0 WNW 9 13 5 7 1017.3 1017.1 0.0
21/12:00am 19.4 16.1 6.2 42 6.6 WNW 13 17 7 9 1017.1 1016.9 0.0
 
Date/Time
EDT
Temp
°C
App
Temp
°C
Dew
Point
°C
Rel
Hum
%
Delta-T
°C
Wind Press
QNH
hPa
Press
MSL
hPa
Rain since
9am
mm
Dir  Spd
km/h
Gust
km/h
Spd
kts
Gust
kts
20/11:30pm 19.6 16.9 8.9 50 5.6 NW 13 17 7 9 1016.8 1016.6 0.0
20/11:00pm 19.3 17.0 10.3 56 4.8 WNW 13 17 7 9 1016.4 1016.2 0.0
20/10:30pm 19.8 18.2 10.2 54 5.2 NNW 9 13 5 7 1016.1 1015.9 0.0
20/10:00pm 20.1 18.3 9.4 50 5.7 NE 9 13 5 7 1015.8 1015.6 0.0
20/09:30pm 20.0 18.1 9.0 49 5.8 NE 9 13 5 7 1015.3 1015.1 0.0
20/09:00pm 19.8 17.9 9.1 50 5.6 NE 9 13 5 7 1014.9 1014.7 0.0
20/08:30pm 19.7 17.6 8.1 47 6.0 NNE 9 13 5 7 1014.3 1014.1 0.0
20/08:00pm 19.7 17.6 8.4 48 5.9 NE 9 13 5 7 1013.6 1013.4 0.0
20/07:30pm 19.7 17.6 8.1 47 6.0 NE 9 13 5 7 1012.7 1012.6 0.0
20/07:00pm 19.6 17.1 8.3 48 5.9 ENE 11 13 6 7 1012.1 1012.0 0.0
20/06:30pm 19.7 16.7 7.8 46 6.1 E 13 20 7 11 1011.5 1011.4 0.0
20/06:00pm 20.0 16.7 8.0 46 6.2 ENE 15 19 8 10 1011.0 1010.9 0.0
20/05:30pm 20.3 16.9 7.7 44 6.5 E 15 19 8 10 1010.6 1010.5 0.0
20/05:00pm 20.7 17.3 7.7 43 6.7 E 15 17 8 9 1010.2 1010.0 0.0
20/04:30pm 20.4 16.9 7.4 43 6.7 ENE 15 19 8 10 1009.9 1009.7 0.0
20/04:00pm 20.5 17.1 7.5 43 6.7 E 15 20 8 11 1009.4 1009.2 0.0
20/03:30pm 20.6 16.3 6.9 41 7.0 ENE 19 22 10 12 1009.2 1009.0 0.0
20/03:00pm 21.3 17.5 5.6 36 7.8 ENE 15 19 8 10 1009.1 1008.9 0.0
20/02:30pm 20.8 17.2 6.7 40 7.2 E 15 19 8 10 1009.0 1008.8 0.0
20/02:00pm 20.3 16.8 7.3 43 6.7 E 15 20 8 11 1009.0 1008.8 0.0
20/01:30pm 20.6 16.9 6.5 40 7.1 ENE 15 19 8 10 1008.8 1008.6 0.0
20/01:00pm 20.1 16.4 6.5 41 6.9 ENE 15 19 8 10 1008.6 1008.4 0.0
20/12:30pm 19.2 15.5 4.6 38 7.0 ENE 13 17 7 9 1008.6 1008.4 0.0
20/12:00pm 20.1 16.8 4.6 36 7.5 E 11 15 6 8 1008.7 1008.5 0.0
20/11:30am 19.5 15.7 4.0 36 7.4 E 13 17 7 9 1008.8 1008.6 0.0
20/11:00am 19.1 15.3 3.7 36 7.3 SSE 13 20 7 11 1008.8 1008.6 0.0
20/10:30am 18.8 15.9 2.6 34 7.5 WNW 7 13 4 7 1009.0 1008.8 0.0
20/10:00am 18.6 15.1 3.3 36 7.2 W 11 15 6 8 1008.9 1008.7 0.0
20/09:30am 17.8 13.6 3.7 39 6.6 WNW 15 20 8 11 1009.0 1008.8 0.0
20/09:00am 17.4 12.8 3.7 40 6.4 WNW 17 20 9 11 1008.9 1008.7 0.2
20/08:30am 17.2 13.9 4.5 43 6.0 W 11 15 6 8 1008.8 1008.6 0.2
20/08:00am 16.5 13.5 5.8 49 5.2 WNW 11 17 6 9 1008.7 1008.5 0.2
20/07:30am 16.2 12.9 6.3 52 4.8 W 13 17 7 9 1008.4 1008.2 0.2
20/07:00am 15.0 11.4 6.6 57 4.1 W 15 19 8 10 1008.1 1007.9 0.2
20/06:30am 14.7 11.3 7.5 62 3.6 W 15 19 8 10 1007.8 1007.6 0.2
20/06:00am 14.6 11.9 8.8 68 3.0 W 13 17 7 9 1007.5 1007.3 0.2
20/05:30am 15.0 12.8 10.8 76 2.2 W 13 17 7 9 1007.3 1007.1 0.2
20/05:00am 15.0 13.1 11.8 81 1.7 SW 13 19 7 10 1007.2 1007.0 0.2
20/04:30am 15.2 12.8 11.4 78 2.0 SSW 15 19 8 10 1006.9 1006.7 0.2
20/04:00am 15.5 12.8 11.7 78 2.1 S 17 20 9 11 1006.3 1006.1 0.2
20/03:30am 15.7 12.1 11.9 78 2.1 S 22 30 12 16 1006.8 1006.6 0.2
20/03:00am 15.8 12.0 12.4 80 1.9 S 24 33 13 18 1006.6 1006.4 0.2
20/02:30am 15.9 11.9 13.0 83 1.6 S 26 35 14 19 1006.3 1006.1 0.2
20/02:00am 16.1 11.5 13.4 84 1.5 S 30 35 16 19 1006.3 1006.1 0.2
20/01:30am 16.4 11.6 13.9 85 1.4 S 32 37 17 20 1006.3 1006.1 0.2
20/01:00am 16.8 11.6 13.5 81 1.9 SSE 33 43 18 23 1006.2 1006.0 0.2
20/12:51am 17.7 15.0 14.6 82 1.8 SSW 22 39 12 21 1006.2 1006.0 0.2
20/12:30am 18.6 17.6 14.7 78 2.3 WSW 13 15 7 8 1006.0 1005.8 0.2
20/12:00am 18.5 18.0 14.8 79 2.2 W 11 15 6 8 1006.0 1005.8 0.2
 
Date/Time
EDT
Temp
°C
App
Temp
°C
Dew
Point
°C
Rel
Hum
%
Delta-T
°C
Wind Press
QNH
hPa
Press
MSL
hPa
Rain since
9am
mm
Dir  Spd
km/h
Gust
km/h
Spd
kts
Gust
kts
19/11:30pm 18.8 18.3 14.9 78 2.3 SW 11 13 6 7 1006.0 1005.8 0.2
19/11:00pm 18.9 18.4 14.8 77 2.4 SW 11 15 6 8 1005.6 1005.4 0.2
19/10:30pm 18.9 18.4 15.0 78 2.3 SSE 11 19 6 10 1005.8 1005.6 0.2
19/10:00pm 19.6 18.3 14.8 74 2.8 SW 15 17 8 9 1005.6 1005.4 0.2
19/09:30pm 19.8 19.0 14.0 69 3.4 SW 11 15 6 8 1005.7 1005.5 0.2
19/09:00pm 19.8 19.6 13.0 65 3.9 SW 6 7 3 4 1006.2 1006.0 0.2
19/08:30pm 20.3 20.0 13.3 64 4.0 NE 7 13 4 7 1006.3 1006.1 0.2
19/08:00pm 20.4 20.1 13.4 64 4.0 ENE 7 13 4 7 1006.2 1006.0 0.2
19/07:30pm 20.1 19.2 13.8 67 3.6 E 11 17 6 9 1005.7 1005.5 0.2
19/07:00pm 20.2 19.4 14.1 68 3.5 E 11 15 6 8 1005.4 1005.2 0.2
19/06:30pm 20.3 19.5 14.0 67 3.6 ENE 11 15 6 8 1005.3 1005.1 0.2
19/06:00pm 20.1 18.7 13.3 65 3.9 ENE 13 17 7 9 1005.3 1005.1 0.2
19/05:30pm 20.5 19.3 13.9 66 3.8 ENE 13 17 7 9 1005.3 1005.1 0.2
19/05:00pm 20.5 19.0 13.2 63 4.2 ENE 13 19 7 10 1005.4 1005.2 0.2
19/04:30pm 20.3 18.3 12.8 62 4.3 ENE 15 20 8 11 1005.5 1005.3 0.2
19/04:00pm 20.2 17.7 13.4 65 3.9 ENE 19 24 10 13 1005.7 1005.5 0.2
19/03:30pm 20.6 18.4 14.3 67 3.7 E 19 24 10 13 1005.9 1005.7 0.2
19/03:00pm 19.9 17.3 13.8 68 3.5 E 20 24 11 13 1006.2 1006.0 0.2
19/02:30pm 20.1 17.9 13.3 65 3.9 E 17 22 9 12 1006.6 1006.4 0.2
19/02:00pm 20.3 18.6 13.5 65 3.9 E 15 24 8 13 1006.9 1006.7 0.2
19/01:30pm 19.9 17.9 12.7 63 4.1 E 15 22 8 12 1007.4 1007.2 0.2
19/01:00pm 19.2 16.3 12.2 64 3.9 ESE 19 22 10 12 1007.7 1007.5 0.2
19/12:30pm 19.4 17.5 11.7 61 4.3 ESE 13 19 7 10 1008.1 1007.9 0.2
19/12:00pm 19.4 17.8 11.7 61 4.3 ESE 11 15 6 8 1008.5 1008.3 0.2
19/11:30am 19.6 18.0 11.6 60 4.4 SE 11 17 6 9 1008.7 1008.5 0.2
19/11:00am 19.2 18.0 10.2 56 4.8 SSW 7 13 4 7 1009.1 1008.9 0.2
19/10:30am 19.1 17.6 10.4 57 4.7 SW 9 13 5 7 1009.2 1009.0 0.2
19/10:00am 18.7 17.2 10.5 59 4.4 SW 9 13 5 7 1009.5 1009.3 0.0
19/09:30am 18.3 16.8 10.7 61 4.1 SW 9 15 5 8 1009.5 1009.3 0.0
19/09:00am 18.4 15.8 10.8 61 4.1 WSW 15 19 8 10 1009.5 1009.3 3.8
19/08:30am 17.6 14.6 10.5 63 3.8 WSW 17 20 9 11 1009.4 1009.2 3.8
19/08:00am 17.0 14.0 10.8 67 3.3 WSW 17 20 9 11 1009.6 1009.4 3.8
19/07:30am 16.2 14.4 10.9 71 2.8 SW 11 17 6 9 1009.8 1009.6 3.8
19/07:00am 16.2 14.0 10.9 71 2.8 SW 13 19 7 10 1009.7 1009.5 3.8
19/06:30am 16.2 13.4 11.2 72 2.7 SSW 17 20 9 11 1009.3 1009.1 3.8
19/06:00am 15.9 12.6 10.9 72 2.7 SSW 19 24 10 13 1009.1 1008.9 3.8
19/05:30am 15.8 12.5 10.8 72 2.7 SW 19 24 10 13 1009.0 1008.8 3.8
19/05:00am 16.1 12.7 11.3 73 2.6 SSW 20 26 11 14 1008.8 1008.6 3.8
19/04:30am 16.1 12.8 11.7 75 2.4 SSW 20 26 11 14 1008.7 1008.5 3.8
19/04:00am 15.9 12.6 11.7 76 2.3 SW 20 28 11 15 1008.5 1008.3 3.8
19/03:30am 16.0 12.4 11.8 76 2.3 SSW 22 30 12 16 1008.6 1008.4 3.8
19/03:00am 16.0 12.1 12.0 77 2.2 SSW 24 32 13 17 1008.5 1008.3 3.8
19/02:30am 16.0 11.9 12.7 81 1.8 SSW 26 32 14 17 1008.5 1008.3 3.8
19/02:00am 15.4 11.2 12.5 83 1.6 SSW 26 33 14 18 1008.6 1008.4 3.8
19/01:30am 15.9 12.2 12.6 81 1.8 SW 24 33 13 18 1009.2 1009.0 3.8
19/01:00am 16.0 11.1 12.7 81 1.8 SSW 30 35 16 19 1009.4 1009.2 3.8
19/12:30am 15.8 10.4 12.7 82 1.7 SSW 33 39 18 21 1009.2 1009.0 3.8
19/12:00am 15.7 10.7 13.5 87 1.2 SSW 32 39 17 21 1009.3 1009.1 3.8
 
Date/Time
EDT
Temp
°C
App
Temp
°C
Dew
Point
°C
Rel
Hum
%
Delta-T
°C
Wind Press
QNH
hPa
Press
MSL
hPa
Rain since
9am
mm
Dir  Spd
km/h
Gust
km/h
Spd
kts
Gust
kts
18/11:30pm 15.9 10.5 13.9 88 1.1 S 35 43 19 23 1009.4 1009.2 3.6
18/11:00pm 16.6 11.0 13.3 81 1.9 SSW 35 43 19 23 1009.2 1009.0 3.0
18/10:30pm 16.2 10.3 13.7 85 1.4 SSW 37 44 20 24 1008.9 1008.7 3.0
18/10:00pm 16.6 10.9 14.2 86 1.4 SSW 37 44 20 24 1008.8 1008.6 2.8
18/09:30pm 17.3 12.5 14.6 84 1.6 SSW 33 41 18 22 1008.7 1008.5 2.8
18/09:00pm 17.7 13.2 15.3 86 1.4 S 33 41 18 22 1008.4 1008.2 2.8
18/08:30pm 17.9 14.6 16.1 89 1.1 SSW 28 39 15 21 1008.0 1007.8 2.8
18/08:00pm 18.1 14.1 16.3 89 1.1 S 32 39 17 21 1007.7 1007.5 2.8
18/07:30pm 18.1 14.1 16.1 88 1.2 S 32 39 17 21 1007.3 1007.1 2.8
18/07:00pm 18.1 14.2 16.4 90 1.0 S 32 39 17 21 1006.4 1006.2 2.8
18/06:30pm 18.5 14.9 17.2 92 0.8 S 32 37 17 20 1006.4 1006.2 2.8
18/06:00pm 19.1 16.7 17.4 90 1.0 S 26 35 14 19 1005.9 1005.7 2.8
18/05:30pm 19.9 19.1 17.1 84 1.7 SSE 17 24 9 13 1005.8 1005.6 2.8
18/05:00pm 20.6 20.1 16.8 79 2.3 SSE 15 19 8 10 1005.3 1005.1 2.8
18/04:30pm 20.0 19.4 16.6 81 2.1 SE 15 20 8 11 1006.0 1005.8 2.8
18/04:00pm 20.0 19.2 17.2 84 1.7 SE 17 22 9 12 1006.2 1006.0 2.8
18/03:30pm 19.1 18.3 17.1 88 1.2 ESE 17 22 9 12 1006.4 1006.2 2.8
18/03:00pm 18.7 17.9 17.0 90 1.0 ESE 17 20 9 11 1006.2 1006.0 2.8
18/02:30pm 18.5 18.0 16.8 90 1.0 ESE 15 22 8 12 1006.8 1006.6 2.6
18/02:00pm 18.8 18.6 16.8 88 1.2 ESE 13 20 7 11 1007.1 1006.9 1.6
18/01:30pm 19.0 18.8 16.6 86 1.4 SSE 13 17 7 9 1007.0 1006.8 0.6
18/01:00pm 19.6 19.4 16.8 84 1.7 SSE 13 17 7 9 1007.3 1007.1 0.2
18/12:30pm 20.0 19.6 17.2 84 1.7 SSE 15 20 8 11 1007.3 1007.1 0.0
18/12:00pm 19.7 18.4 16.9 84 1.7 S 19 22 10 12 1007.5 1007.3 0.0
18/11:30am 20.5 18.9 15.9 75 2.8 S 19 22 10 12 1007.9 1007.7 0.0
18/11:00am 20.2 18.4 16.0 77 2.5 SSW 20 24 11 13 1007.9 1007.7 0.0
18/10:30am 20.7 19.2 16.3 76 2.7 S 19 26 10 14 1007.7 1007.5 0.0
18/10:00am 20.0 18.8 16.2 79 2.3 SSW 17 22 9 12 1007.4 1007.2 0.0
18/09:30am 19.8 18.6 16.1 79 2.2 SSW 17 20 9 11 1007.5 1007.3 0.0
18/09:00am 19.3 18.8 15.8 80 2.1 SW 13 17 7 9 1007.6 1007.4 0.0
18/08:30am 19.2 18.4 16.1 82 1.9 SW 15 19 8 10 1008.2 1008.0 0.0
18/08:00am 19.0 18.0 16.6 86 1.4 SW 17 22 9 12 1007.5 1007.3 0.0
18/07:30am 18.6 17.7 16.9 90 1.0 SW 17 20 9 11 1007.3 1007.1 0.0

Other Formats:

Comma delimited format used in spreadsheet applications
http://www.bom.gov.au/fwo/IDN60801/IDN60801.94939.axf

JavaScript Object Notation format (JSON) in row-major order
http://www.bom.gov.au/fwo/IDN60801/IDN60801.94939.json